Time;durP1;ratioP1;P1;durP2;ratioP2;P2;SDS_P1;SDS_P2;PMS_P1;PMS_P2;Temp;Humidity;BMP_temperature;BMP_pressure;BME280_temperature;BME280_humidity;BME280_pressure;Samples;Min_cycle;Max_cycle;Signal;HPM_P1;HPM_P2
2022/05/08 00:02:24;;;;;;;6.93;5.75;;;16.00;95.40;;;;;;4871218;29;20033;-44
2022/05/08 00:04:52;;;;;;;6.30;5.15;;;15.90;95.60;;;;;;4871304;29;20041;-45
2022/05/08 00:07:19;;;;;;;7.80;6.13;;;15.90;95.70;;;;;;4870925;29;20029;-45
2022/05/08 00:09:45;;;;;;;7.93;6.28;;;16.00;95.80;;;;;;4870004;29;20037;-46
2022/05/08 00:12:11;;;;;;;6.22;5.63;;;15.90;95.90;;;;;;4870939;29;20478;-50
2022/05/08 00:14:38;;;;;;;8.18;6.60;;;16.00;95.90;;;;;;4871033;29;20029;-44
2022/05/08 00:17:04;;;;;;;7.45;6.57;;;16.00;96.00;;;;;;4871273;29;20461;-46
2022/05/08 00:19:30;;;;;;;11.30;7.22;;;16.00;96.20;;;;;;4871479;29;20064;-44
2022/05/08 00:21:55;;;;;;;6.50;5.88;;;16.00;96.30;;;;;;4857051;29;20503;-44
2022/05/08 00:24:21;;;;;;;7.32;6.57;;;15.90;96.50;;;;;;4871063;29;20057;-44
2022/05/08 00:26:46;;;;;;;13.80;7.25;;;16.00;96.70;;;;;;4870941;29;20065;-45
2022/05/08 00:29:12;;;;;;;7.47;6.13;;;16.00;96.80;;;;;;4870905;29;20064;-49
2022/05/08 00:31:38;;;;;;;8.10;6.70;;;15.90;96.90;;;;;;4870735;29;20413;-45
2022/05/08 00:34:04;;;;;;;8.25;6.53;;;16.00;97.00;;;;;;4870802;29;20383;-44
2022/05/08 00:36:30;;;;;;;8.05;6.95;;;15.80;97.20;;;;;;4870567;29;20032;-44
2022/05/08 00:38:56;;;;;;;8.57;7.18;;;15.90;97.40;;;;;;4870375;29;20092;-49
2022/05/08 00:41:21;;;;;;;8.30;6.57;;;15.80;97.50;;;;;;4870540;29;20457;-45
2022/05/08 00:43:47;;;;;;;7.80;6.55;;;15.70;97.70;;;;;;4870415;29;20041;-43
2022/05/08 00:46:13;;;;;;;7.25;6.53;;;15.70;98.00;;;;;;4870753;29;20449;-47
2022/05/08 00:48:40;;;;;;;10.25;7.65;;;15.60;98.30;;;;;;4870308;29;20026;-45
2022/05/08 00:51:11;;;;;;;11.23;7.05;;;15.40;98.90;;;;;;4870415;29;20080;-47
2022/05/08 00:53:45;;;;;;;8.32;7.18;;;15.40;99.20;;;;;;4870550;29;20037;-44
2022/05/08 00:56:14;;;;;;;8.95;7.18;;;15.40;99.50;;;;;;4870527;29;20030;-46
2022/05/08 00:58:41;;;;;;;7.72;6.10;;;15.30;99.70;;;;;;4870202;29;20560;-46
2022/05/08 01:01:09;;;;;;;6.95;6.18;;;15.30;99.90;;;;;;4870469;29;20420;-45
2022/05/08 01:03:35;;;;;;;11.32;6.50;;;15.30;99.90;;;;;;4870312;29;20408;-45
2022/05/08 01:06:05;;;;;;;9.65;6.93;;;15.30;99.90;;;;;;4870376;29;20037;-48
2022/05/08 01:08:34;;;;;;;7.13;6.47;;;15.30;99.90;;;;;;4870324;29;20036;-46
2022/05/08 01:11:04;;;;;;;11.60;6.72;;;15.40;99.90;;;;;;4870243;29;20040;-46
2022/05/08 01:13:30;;;;;;;10.48;6.28;;;15.40;99.90;;;;;;4870272;29;20042;-47
2022/05/08 01:15:56;;;;;;;7.88;7.10;;;15.30;99.90;;;;;;4870214;29;20505;-46
2022/05/08 01:18:22;;;;;;;7.40;6.70;;;15.20;99.90;;;;;;4870191;29;20077;-46
2022/05/08 01:20:48;;;;;;;11.15;6.50;;;15.10;99.90;;;;;;4871533;29;20486;-47
2022/05/08 01:23:19;;;;;;;9.52;6.47;;;15.20;99.90;;;;;;4859887;29;20108;-45
2022/05/08 01:25:52;;;;;;;8.73;6.38;;;15.10;99.90;;;;;;4873368;29;20030;-44
2022/05/08 01:28:19;;;;;;;7.13;6.53;;;15.10;99.90;;;;;;4873280;29;20536;-46
2022/05/08 01:30:51;;;;;;;8.77;7.35;;;15.10;99.90;;;;;;4873209;29;20449;-45
2022/05/08 01:33:17;;;;;;;10.68;6.72;;;15.00;99.90;;;;;;4873304;29;20034;-47
2022/05/08 01:35:43;;;;;;;9.70;6.43;;;15.10;99.90;;;;;;4873032;29;20061;-43
2022/05/08 01:38:10;;;;;;;9.32;6.65;;;15.00;99.90;;;;;;4873025;29;20101;-46
2022/05/08 01:40:36;;;;;;;7.93;6.32;;;15.10;99.90;;;;;;4873017;29;20382;-45
2022/05/08 01:43:02;;;;;;;9.82;7.00;;;15.10;99.90;;;;;;4872661;29;20088;-44
2022/05/08 01:45:28;;;;;;;7.32;6.53;;;15.10;99.90;;;;;;4873208;29;20039;-45
2022/05/08 01:50:39;;;;;;;8.00;7.20;;;15.10;99.90;;;;;;4858922;29;20068;-45
2022/05/08 01:53:05;;;;;;;13.57;7.25;;;15.20;99.90;;;;;;4873225;29;20489;-46
2022/05/08 01:55:30;;;;;;;8.20;6.90;;;15.10;99.90;;;;;;4873106;29;20037;-42
2022/05/08 01:57:56;;;;;;;11.07;7.15;;;15.10;99.90;;;;;;4872432;29;20072;-44
2022/05/08 02:00:22;;;;;;;9.98;7.07;;;15.10;99.90;;;;;;4872811;29;20084;-45
2022/05/08 02:02:49;;;;;;;14.95;7.45;;;15.10;99.90;;;;;;4872810;29;20085;-45
2022/05/08 02:05:19;;;;;;;8.32;7.22;;;15.10;99.90;;;;;;4872953;29;20030;-45
2022/05/08 02:07:46;;;;;;;8.63;6.82;;;15.00;99.90;;;;;;4872210;29;20029;-49
2022/05/08 02:10:16;;;;;;;8.90;5.97;;;15.00;99.90;;;;;;4872647;29;20049;-45
2022/05/08 02:12:42;;;;;;;8.98;5.75;;;15.00;99.90;;;;;;4872612;29;20450;-45
2022/05/08 02:15:10;;;;;;;12.65;6.55;;;14.90;99.90;;;;;;4872730;29;20088;-46
2022/05/08 02:17:36;;;;;;;12.75;6.43;;;14.90;99.90;;;;;;4858126;29;20030;-44
2022/05/08 02:20:03;;;;;;;10.05;6.43;;;14.80;99.90;;;;;;4872859;29;20032;-45
2022/05/08 02:22:29;;;;;;;14.57;6.38;;;14.70;99.90;;;;;;4872920;29;20038;-44
2022/05/08 02:24:55;;;;;;;10.63;5.75;;;14.70;99.90;;;;;;4873217;29;20030;-44
2022/05/08 02:27:20;;;;;;;8.30;6.63;;;14.40;99.90;;;;;;4873098;29;20128;-44
2022/05/08 02:29:50;;;;;;;10.50;5.85;;;14.60;99.90;;;;;;4858098;29;20465;-46
2022/05/08 02:32:17;;;;;;;9.82;5.72;;;14.50;99.90;;;;;;4871740;29;20037;-45
2022/05/08 02:34:42;;;;;;;9.30;6.53;;;14.50;99.90;;;;;;4872514;29;20061;-43
2022/05/08 02:37:08;;;;;;;6.70;6.10;;;14.50;99.90;;;;;;4872326;29;20406;-45
2022/05/08 02:39:34;;;;;;;10.00;8.50;;;14.40;99.90;;;;;;4872228;29;20026;-50
2022/05/08 02:41:59;;;;;;;10.55;8.02;;;14.40;99.90;;;;;;4858104;29;20121;-46
2022/05/08 02:44:25;;;;;;;12.35;8.60;;;14.40;99.90;;;;;;4857835;29;20034;-45
2022/05/08 02:46:51;;;;;;;8.20;7.43;;;14.50;99.90;;;;;;4856689;29;20065;-43
2022/05/08 02:49:16;;;;;;;8.73;7.78;;;14.50;99.90;;;;;;4871964;29;20068;-45
2022/05/08 02:51:42;;;;;;;8.50;7.70;;;14.50;99.90;;;;;;4872104;28;20033;-44
2022/05/08 02:54:07;;;;;;;12.50;7.70;;;14.50;99.90;;;;;;4872086;29;20500;-46
2022/05/08 02:59:18;;;;;;;7.72;6.35;;;14.50;99.90;;;;;;4857678;29;20088;-43
2022/05/08 03:01:43;;;;;;;11.10;6.45;;;14.40;99.90;;;;;;4872194;29;20034;-44
2022/05/08 03:04:09;;;;;;;6.93;6.30;;;14.40;99.90;;;;;;4857920;29;20040;-46
2022/05/08 03:06:34;;;;;;;6.93;6.32;;;14.30;99.90;;;;;;4871810;29;20022;-47
2022/05/08 03:09:00;;;;;;;9.20;6.65;;;14.30;99.90;;;;;;4857405;29;20073;-49
2022/05/08 03:11:26;;;;;;;8.73;6.95;;;14.20;99.90;;;;;;4871759;29;20084;-44
2022/05/08 03:13:56;;;;;;;12.85;6.85;;;14.00;99.90;;;;;;4857360;29;20034;-46
2022/05/08 03:16:25;;;;;;;7.60;6.90;;;14.00;99.90;;;;;;4871801;29;20030;-49
2022/05/08 03:18:51;;;;;;;9.07;6.75;;;13.90;99.90;;;;;;4857282;29;20113;-43
2022/05/08 03:21:17;;;;;;;9.80;6.95;;;13.90;99.90;;;;;;4871638;29;20057;-44
2022/05/08 03:23:45;;;;;;;10.63;7.68;;;13.90;99.90;;;;;;4871801;29;20512;-44
2022/05/08 03:26:12;;;;;;;14.38;7.35;;;13.80;99.90;;;;;;4871657;29;20037;-45
2022/05/08 03:28:38;;;;;;;8.90;6.90;;;13.80;99.90;;;;;;4851343;29;20133;-41
2022/05/08 03:31:04;;;;;;;9.75;6.97;;;13.80;99.90;;;;;;4848560;29;20045;-43
2022/05/08 03:33:31;;;;;;;10.10;7.40;;;13.80;99.90;;;;;;4856893;29;20397;-43
2022/05/08 03:35:58;;;;;;;13.00;8.23;;;13.70;99.90;;;;;;4857172;29;20550;-43
2022/05/08 03:38:24;;;;;;;10.43;8.48;;;13.80;99.90;;;;;;4856955;29;20021;-41
2022/05/08 03:40:50;;;;;;;9.85;8.70;;;13.80;99.90;;;;;;4871279;29;20030;-40
2022/05/08 03:43:16;;;;;;;10.70;8.70;;;13.90;99.90;;;;;;4868414;29;20030;-42
2022/05/08 03:45:41;;;;;;;11.98;8.38;;;13.90;99.90;;;;;;4856989;29;20379;-42
2022/05/08 03:48:07;;;;;;;11.23;8.82;;;14.00;99.90;;;;;;4870458;29;20045;-43
2022/05/08 03:50:33;;;;;;;9.02;8.13;;;14.00;99.90;;;;;;4871372;29;20029;-41
2022/05/08 03:53:01;;;;;;;12.85;9.13;;;13.90;99.90;;;;;;4870945;29;20120;-42
2022/05/08 03:55:27;;;;;;;10.60;9.60;;;13.80;99.90;;;;;;4857076;29;20505;-43
2022/05/08 03:57:53;;;;;;;10.55;8.93;;;13.80;99.90;;;;;;4853165;29;20069;-43
2022/05/08 04:00:20;;;;;;;12.10;8.98;;;13.70;99.90;;;;;;4830651;29;20025;-42
2022/05/08 04:02:46;;;;;;;12.45;8.65;;;13.60;99.90;;;;;;4839859;29;20041;-42
2022/05/08 04:05:12;;;;;;;13.77;9.43;;;13.60;99.90;;;;;;4834535;29;20030;-45
2022/05/08 04:07:38;;;;;;;13.10;8.95;;;13.50;99.90;;;;;;4848318;29;20030;-43
2022/05/08 04:10:04;;;;;;;10.18;8.38;;;13.50;99.90;;;;;;4851952;29;20581;-44
2022/05/08 04:12:30;;;;;;;12.90;8.70;;;13.50;99.90;;;;;;4837727;29;20066;-46
2022/05/08 04:14:55;;;;;;;13.43;9.10;;;13.50;99.90;;;;;;4851297;29;20064;-42
2022/05/08 04:17:21;;;;;;;9.60;8.43;;;13.50;99.90;;;;;;4818601;29;20394;-43
2022/05/08 04:19:46;;;;;;;12.05;8.85;;;13.50;99.90;;;;;;4904265;29;20077;-43
2022/05/08 04:24:57;;;;;;;10.57;8.60;;;13.60;99.90;;;;;;4891414;29;20093;-46
2022/05/08 04:27:23;;;;;;;10.55;8.48;;;13.60;99.90;;;;;;4833624;29;20038;-42
2022/05/08 04:29:49;;;;;;;9.57;7.55;;;13.60;99.90;;;;;;4849557;29;20088;-45
2022/05/08 04:32:14;;;;;;;8.82;7.18;;;13.60;99.90;;;;;;4851611;29;20041;-44
2022/05/08 04:34:40;;;;;;;9.85;7.65;;;13.60;99.90;;;;;;4909247;29;20042;-41
2022/05/08 04:37:06;;;;;;;11.68;7.43;;;13.70;99.90;;;;;;4846645;29;20027;-43
2022/05/08 04:39:31;;;;;;;10.90;7.88;;;13.70;99.90;;;;;;4833861;29;20399;-41
2022/05/08 04:41:57;;;;;;;13.38;8.75;;;13.80;99.90;;;;;;4870936;29;20416;-43
2022/05/08 04:44:22;;;;;;;13.23;7.60;;;13.90;99.90;;;;;;4853890;29;20037;-44
2022/05/08 04:46:48;;;;;;;9.35;7.38;;;14.00;99.90;;;;;;4834248;29;20092;-45
2022/05/08 04:49:14;;;;;;;10.63;6.95;;;14.00;99.90;;;;;;4834771;29;20026;-43
2022/05/08 04:51:39;;;;;;;7.95;7.13;;;14.10;99.90;;;;;;4829228;29;20062;-40
2022/05/08 04:54:05;;;;;;;12.75;8.75;;;14.20;99.90;;;;;;4833351;29;20031;-44
2022/05/08 04:56:31;;;;;;;8.90;8.00;;;14.20;99.90;;;;;;4850421;29;20041;-45
2022/05/08 04:58:57;;;;;;;7.70;6.93;;;14.30;99.90;;;;;;4852746;29;20034;-45
2022/05/08 05:01:23;;;;;;;10.45;8.43;;;14.40;99.90;;;;;;4836724;29;20379;-49
2022/05/08 05:03:49;;;;;;;11.55;8.80;;;14.60;99.90;;;;;;4836453;29;20037;-44
2022/05/08 05:06:15;;;;;;;12.02;8.75;;;14.70;99.90;;;;;;4836716;29;20498;-42
2022/05/08 05:08:41;;;;;;;9.20;7.38;;;14.90;99.90;;;;;;4850860;29;20085;-44
2022/05/08 05:11:10;;;;;;;9.82;7.70;;;14.90;99.90;;;;;;4854735;29;20149;-43
2022/05/08 05:13:39;;;;;;;10.77;8.45;;;14.90;99.90;;;;;;4854729;29;20038;-43
2022/05/08 05:16:05;;;;;;;9.65;7.82;;;15.10;99.90;;;;;;4855265;29;20034;-44
2022/05/08 05:18:31;;;;;;;10.30;7.72;;;15.10;99.90;;;;;;4840523;29;20041;-42
2022/05/08 05:20:57;;;;;;;8.68;7.60;;;15.10;99.90;;;;;;4854663;29;20022;-42
2022/05/08 05:23:23;;;;;;;9.73;8.20;;;15.00;99.90;;;;;;4854758;29;20037;-43
2022/05/08 05:25:49;;;;;;;15.52;8.93;;;15.10;99.90;;;;;;4854575;29;20121;-43
2022/05/08 05:28:15;;;;;;;11.07;8.38;;;15.10;99.90;;;;;;4854662;29;20564;-43
2022/05/08 05:30:41;;;;;;;10.77;7.95;;;15.00;99.90;;;;;;4854437;29;20504;-43
2022/05/08 05:33:07;;;;;;;10.32;8.60;;;15.10;99.90;;;;;;4875412;23;20090;-47
2022/05/08 05:35:38;;;;;;;13.10;8.63;;;15.10;99.90;;;;;;4935405;29;20035;-44
2022/05/08 05:38:04;;;;;;;14.45;8.68;;;15.20;99.90;;;;;;4950971;29;20028;-50
2022/05/08 05:40:29;;;;;;;11.20;8.82;;;15.20;99.90;;;;;;4951716;29;20071;-47
2022/05/08 05:42:57;;;;;;;11.77;9.32;;;15.30;99.90;;;;;;4951590;29;20032;-48
2022/05/08 05:45:23;;;;;;;11.07;8.77;;;15.30;99.90;;;;;;4951581;29;20023;-49
2022/05/08 05:47:49;;;;;;;11.75;8.63;;;15.40;99.90;;;;;;4936294;29;20032;-46
2022/05/08 05:50:16;;;;;;;11.65;8.63;;;15.50;99.90;;;;;;4951562;28;20036;-50
2022/05/08 05:52:42;;;;;;;12.85;9.35;;;15.60;99.90;;;;;;4951486;29;20038;-47
2022/05/08 05:55:08;;;;;;;14.20;8.93;;;15.70;99.90;;;;;;4936708;29;20067;-48
2022/05/08 05:57:34;;;;;;;12.35;9.00;;;15.80;99.90;;;;;;4935170;29;20031;-47
2022/05/08 06:00:00;;;;;;;13.48;9.00;;;15.90;99.90;;;;;;4935688;29;20026;-47
2022/05/08 06:02:25;;;;;;;13.60;9.73;;;15.80;99.90;;;;;;4936622;29;20467;-49
2022/05/08 06:04:51;;;;;;;11.50;10.30;;;15.70;99.90;;;;;;4949836;29;20051;-46
2022/05/08 06:07:16;;;;;;;11.23;9.48;;;15.70;99.90;;;;;;4947283;28;20407;-50
2022/05/08 06:09:42;;;;;;;13.25;9.45;;;15.70;99.90;;;;;;4951073;29;20432;-50
2022/05/08 06:12:08;;;;;;;19.20;8.85;;;15.70;99.90;;;;;;4934128;29;20035;-52
2022/05/08 06:14:34;;;;;;;12.43;9.40;;;15.70;99.90;;;;;;4931985;29;20028;-48
2022/05/08 06:16:59;;;;;;;11.73;8.57;;;15.70;99.90;;;;;;4939967;29;20071;-48
2022/05/08 06:19:25;;;;;;;12.45;8.88;;;15.70;99.90;;;;;;4951156;29;20063;-47
2022/05/08 06:21:52;;;;;;;15.07;9.10;;;15.70;99.90;;;;;;4951049;29;20476;-49
2022/05/08 06:24:17;;;;;;;10.38;8.73;;;15.60;99.90;;;;;;4950915;28;20024;-50
2022/05/08 06:26:43;;;;;;;12.25;8.55;;;15.70;99.90;;;;;;4950387;29;20408;-48
2022/05/08 06:29:08;;;;;;;10.90;8.75;;;15.80;99.90;;;;;;4935975;29;20047;-49
2022/05/08 06:31:34;;;;;;;15.93;9.55;;;15.70;99.90;;;;;;4950605;29;20028;-47
2022/05/08 06:33:59;;;;;;;9.77;8.77;;;15.80;99.90;;;;;;4950515;29;20355;-45
2022/05/08 06:36:26;;;;;;;14.15;10.10;;;15.90;99.90;;;;;;4950673;28;20090;-45
2022/05/08 06:38:52;;;;;;;12.57;8.45;;;16.00;99.90;;;;;;4934465;29;20114;-46
2022/05/08 06:41:17;;;;;;;14.50;9.13;;;16.20;99.90;;;;;;4934723;29;20035;-49
2022/05/08 06:43:44;;;;;;;11.93;8.57;;;16.40;99.90;;;;;;4950361;29;20431;-49
2022/05/08 06:46:11;;;;;;;10.48;8.63;;;16.40;99.90;;;;;;4950701;29;20373;-48
2022/05/08 06:48:36;;;;;;;10.55;8.88;;;16.50;99.90;;;;;;4946565;29;20024;-46
2022/05/08 06:51:03;;;;;;;12.77;8.43;;;16.60;99.90;;;;;;4931594;29;20066;-42
2022/05/08 06:53:30;;;;;;;10.23;8.43;;;16.70;99.90;;;;;;4941089;28;20028;-46
2022/05/08 06:55:56;;;;;;;10.00;8.07;;;16.80;99.90;;;;;;4950397;29;20408;-49
2022/05/08 06:58:21;;;;;;;11.27;8.27;;;16.90;99.90;;;;;;4950061;29;20043;-46
2022/05/08 07:03:32;;;;;;;9.23;7.68;;;17.10;99.90;;;;;;4935967;29;20047;-47
2022/05/08 07:06:00;;;;;;;10.35;8.27;;;17.00;99.90;;;;;;4937800;29;20031;-46
2022/05/08 07:08:26;;;;;;;11.63;8.57;;;16.90;99.90;;;;;;4930956;29;20028;-46
2022/05/08 07:10:51;;;;;;;9.65;8.20;;;16.80;99.90;;;;;;4931341;29;20056;-48
2022/05/08 07:13:17;;;;;;;10.73;7.93;;;16.70;99.90;;;;;;4931080;29;20062;-47
2022/05/08 07:15:42;;;;;;;9.05;8.15;;;16.60;99.90;;;;;;4931089;29;20043;-49
2022/05/08 07:18:08;;;;;;;13.55;8.30;;;16.50;99.90;;;;;;4916032;29;20028;-46
2022/05/08 07:20:34;;;;;;;11.63;9.63;;;16.40;99.90;;;;;;4931137;29;20024;-47
2022/05/08 07:23:00;;;;;;;13.27;9.15;;;16.40;99.90;;;;;;4916423;29;20412;-47
2022/05/08 07:25:26;;;;;;;8.90;8.10;;;16.40;99.90;;;;;;4930808;29;20032;-47
2022/05/08 07:27:51;;;;;;;11.43;8.68;;;16.50;99.90;;;;;;4915862;29;20039;-47
2022/05/08 07:30:17;;;;;;;12.75;8.68;;;16.60;99.90;;;;;;4916325;29;20039;-47
2022/05/08 07:32:44;;;;;;;12.00;8.02;;;16.80;99.90;;;;;;4916222;29;20028;-47
2022/05/08 07:37:54;;;;;;;8.93;7.75;;;17.00;99.90;;;;;;4916011;29;20507;-48
2022/05/08 07:40:20;;;;;;;8.20;7.25;;;17.30;99.90;;;;;;4915770;29;20029;-52
2022/05/08 07:42:45;;;;;;;11.07;8.20;;;17.50;99.90;;;;;;4944918;29;20500;-49
2022/05/08 07:45:11;;;;;;;10.57;6.68;;;17.60;99.90;;;;;;4949581;28;20023;-46
2022/05/08 07:47:36;;;;;;;7.88;7.10;;;17.90;99.90;;;;;;4933428;29;20028;-43
2022/05/08 07:50:02;;;;;;;9.65;6.63;;;18.10;99.90;;;;;;4934991;29;20503;-50
2022/05/08 07:52:28;;;;;;;12.48;6.70;;;18.30;99.90;;;;;;4933413;29;20075;-51
2022/05/08 07:54:53;;;;;;;7.30;6.38;;;18.40;99.90;;;;;;4934681;29;20111;-48
2022/05/08 07:57:19;;;;;;;8.10;6.45;;;18.90;99.90;;;;;;4948494;29;20023;-49
2022/05/08 07:59:45;;;;;;;6.97;6.32;;;19.70;99.90;;;;;;4949103;29;20028;-46
2022/05/08 08:02:10;;;;;;;8.30;5.78;;;20.90;98.90;;;;;;4949171;29;20468;-52
2022/05/08 08:04:36;;;;;;;8.10;5.88;;;21.50;98.00;;;;;;4934343;29;20032;-47
2022/05/08 08:07:03;;;;;;;7.53;5.18;;;22.10;96.00;;;;;;4934231;29;20098;-49
2022/05/08 08:09:29;;;;;;;9.98;5.38;;;22.70;95.20;;;;;;4934288;29;20460;-43
2022/05/08 08:11:54;;;;;;;7.25;5.45;;;23.20;94.30;;;;;;4934282;29;20118;-50
2022/05/08 08:14:21;;;;;;;11.13;5.32;;;23.30;92.90;;;;;;4934247;29;20028;-48
2022/05/08 08:16:47;;;;;;;6.75;5.13;;;23.50;93.20;;;;;;4947549;29;20488;-49
2022/05/08 08:19:12;;;;;;;10.18;5.60;;;23.90;93.20;;;;;;4915348;29;20108;-46
2022/05/08 08:21:38;;;;;;;6.97;4.57;;;24.30;91.80;;;;;;4915893;29;20056;-46
2022/05/08 08:24:04;;;;;;;8.07;5.90;;;24.90;91.20;;;;;;4938319;29;20106;-43
2022/05/08 08:26:30;;;;;;;7.20;5.57;;;25.20;87.90;;;;;;4936951;29;20511;-44
2022/05/08 08:28:55;;;;;;;8.35;5.22;;;24.90;89.00;;;;;;4929316;29;20037;-48
2022/05/08 08:31:21;;;;;;;47.75;32.83;;;24.80;89.20;;;;;;4929222;29;20036;-47
2022/05/08 08:33:47;;;;;;;52.50;38.13;;;24.80;89.10;;;;;;4943515;28;20035;-48
2022/05/08 08:36:13;;;;;;;6.53;5.93;;;24.90;88.60;;;;;;4937050;29;20487;-49
2022/05/08 08:38:39;;;;;;;6.53;5.72;;;24.40;87.60;;;;;;4933973;29;20024;-49
2022/05/08 08:41:07;;;;;;;9.32;5.90;;;24.10;90.00;;;;;;4948661;28;20059;-45
2022/05/08 08:47:42;;;;;;;8.65;5.53;;;24.30;89.40;;;;;;4948280;29;20050;-45
2022/05/08 08:49:19;;;;;;;8.05;6.32;;;23.50;89.60;;;;;;4933571;29;20045;-47
2022/05/08 08:51:45;;;;;;;9.82;6.72;;;23.10;90.20;;;;;;4948640;29;20407;-50
2022/05/08 08:54:11;;;;;;;6.75;5.72;;;22.90;90.80;;;;;;4914961;29;20036;-48
2022/05/08 08:56:36;;;;;;;8.73;6.22;;;22.40;91.20;;;;;;4932311;29;20023;-45
2022/05/08 08:59:02;;;;;;;7.45;5.93;;;22.60;91.90;;;;;;4931993;29;20024;-47
2022/05/08 09:01:32;;;;;;;8.20;6.10;;;22.70;92.10;;;;;;4932081;29;20075;-47
2022/05/08 09:04:00;;;;;;;6.28;5.68;;;22.70;91.70;;;;;;4947738;29;20023;-47
2022/05/08 09:06:25;;;;;;;6.80;6.10;;;23.00;91.80;;;;;;4939094;29;20349;-52
2022/05/08 09:08:51;;;;;;;9.07;7.30;;;23.40;91.20;;;;;;4940658;29;20161;-48
2022/05/08 09:11:32;;;;;;;9.25;6.93;;;23.00;91.10;;;;;;4948736;29;20031;-56
2022/05/08 09:13:58;;;;;;;7.80;6.32;;;22.80;91.10;;;;;;4948464;28;20492;-47
2022/05/08 09:16:23;;;;;;;7.30;6.60;;;22.70;91.30;;;;;;4948568;29;20030;-46
2022/05/08 09:18:49;;;;;;;6.65;6.05;;;22.70;91.60;;;;;;4948052;28;20020;-45
2022/05/08 09:24:11;;;;;;;10.77;6.63;;;22.80;91.50;;;;;;4934043;29;20053;-47
2022/05/08 09:26:37;;;;;;;6.90;5.88;;;22.80;91.40;;;;;;4948291;29;20400;-46
2022/05/08 09:29:04;;;;;;;6.85;5.85;;;22.50;92.10;;;;;;4948097;29;20024;-48
2022/05/08 09:31:43;;;;;;;7.63;6.00;;;22.60;92.00;;;;;;4933699;29;20506;-45
2022/05/08 09:34:09;;;;;;;41.40;32.03;;;22.50;91.70;;;;;;4948268;28;20090;-47
2022/05/08 09:36:35;;;;;;;11.73;7.47;;;22.60;92.00;;;;;;4916421;29;20516;-46
2022/05/08 09:39:02;;;;;;;16.90;10.45;;;22.50;91.70;;;;;;4915970;29;20070;-47
2022/05/08 09:41:37;;;;;;;10.48;6.00;;;22.40;92.00;;;;;;4933614;29;20031;-45
2022/05/08 09:44:14;;;;;;;7.00;5.93;;;22.50;92.40;;;;;;4937468;29;20031;-45
2022/05/08 09:46:44;;;;;;;7.15;6.45;;;22.70;92.20;;;;;;4935624;29;20035;-46
2022/05/08 09:49:17;;;;;;;8.98;6.10;;;22.80;91.50;;;;;;4935783;29;20067;-45
2022/05/08 09:51:43;;;;;;;9.95;7.13;;;22.50;92.10;;;;;;4935727;29;20130;-48
2022/05/08 09:54:09;;;;;;;10.80;6.45;;;22.50;91.80;;;;;;4951694;29;20031;-48
2022/05/08 09:56:36;;;;;;;6.43;5.82;;;22.40;92.50;;;;;;4950671;29;20115;-50
2022/05/08 09:59:06;;;;;;;7.38;6.22;;;22.20;91.70;;;;;;4940387;29;20036;-48
2022/05/08 10:01:33;;;;;;;8.38;6.97;;;22.10;91.20;;;;;;4951403;29;20024;-48
2022/05/08 10:03:59;;;;;;;5.68;5.28;;;22.00;91.40;;;;;;4938180;29;20020;-52
2022/05/08 10:06:28;;;;;;;8.32;5.40;;;22.00;92.20;;;;;;4949666;29;20028;-47
2022/05/08 10:13:53;;;;;;;8.73;5.97;;;22.30;92.70;;;;;;4935357;29;20028;-47
2022/05/08 10:14:30;;;;;;;6.90;5.97;;;22.10;91.90;;;;;;4936133;29;20396;-46
2022/05/08 10:17:04;;;;;;;8.95;6.15;;;21.90;92.40;;;;;;4934713;29;20035;-47
2022/05/08 10:19:29;;;;;;;8.02;5.70;;;21.90;91.80;;;;;;4935711;29;20032;-44
2022/05/08 10:24:27;;;;;;;6.18;5.63;;;21.80;92.10;;;;;;4936588;29;20071;-45
2022/05/08 10:27:14;;;;;;;7.22;6.15;;;21.80;92.10;;;;;;4935768;29;20028;-49
2022/05/08 10:29:49;;;;;;;6.93;5.95;;;21.90;91.40;;;;;;4950886;29;20028;-47
2022/05/08 10:32:33;;;;;;;7.03;5.68;;;22.00;90.80;;;;;;4936311;29;20035;-44
2022/05/08 10:35:13;;;;;;;7.05;6.25;;;22.10;91.80;;;;;;4934443;29;20032;-44
2022/05/08 10:37:49;;;;;;;8.00;5.82;;;22.20;91.80;;;;;;4946788;29;20027;-46
2022/05/08 10:40:24;;;;;;;10.02;6.05;;;22.20;91.50;;;;;;4936116;29;20055;-46
2022/05/08 10:42:58;;;;;;;7.45;5.45;;;22.10;92.00;;;;;;4935888;29;20083;-47
2022/05/08 10:45:32;;;;;;;6.57;5.43;;;22.20;92.70;;;;;;4950878;29;20404;-45
2022/05/08 10:48:21;;;;;;;7.82;6.00;;;22.40;91.90;;;;;;4950703;29;20055;-47
2022/05/08 10:50:54;;;;;;;9.80;6.35;;;22.30;90.70;;;;;;4950852;29;20050;-48
2022/05/08 10:53:28;;;;;;;9.25;5.93;;;22.30;91.30;;;;;;4949873;28;20027;-45
2022/05/08 10:56:00;;;;;;;6.50;5.90;;;22.10;91.60;;;;;;4916553;29;20493;-49
2022/05/08 10:58:26;;;;;;;11.75;6.45;;;22.10;91.70;;;;;;4950097;29;20473;-46
2022/05/08 11:00:56;;;;;;;6.90;6.10;;;22.10;91.00;;;;;;4941810;29;20024;-46
2022/05/08 11:03:22;;;;;;;9.38;5.85;;;22.20;90.80;;;;;;4925703;29;20063;-47
2022/05/08 11:05:48;;;;;;;6.25;5.30;;;22.20;90.80;;;;;;4950341;28;20460;-47
2022/05/08 11:08:22;;;;;;;6.32;5.60;;;22.20;90.40;;;;;;4950273;28;20617;-46
2022/05/08 11:10:56;;;;;;;7.03;4.88;;;22.10;91.00;;;;;;4950265;29;20031;-47
2022/05/08 11:13:21;;;;;;;13.37;6.23;;;22.10;91.90;;;;;;4949984;29;20028;-51
2022/05/08 11:15:49;;;;;;;7.45;6.30;;;21.80;91.60;;;;;;4949804;28;20336;-52
2022/05/08 11:18:18;;;;;;;7.30;6.32;;;21.40;92.00;;;;;;4945681;29;20038;-47
2022/05/08 11:20:46;;;;;;;10.18;5.95;;;21.40;92.00;;;;;;4949856;29;20047;-51
2022/05/08 11:23:12;;;;;;;11.13;8.90;;;21.30;93.00;;;;;;4935288;29;20023;-47
2022/05/08 11:25:38;;;;;;;11.75;9.63;;;21.30;93.00;;;;;;4933454;29;20028;-50
2022/05/08 11:28:04;;;;;;;7.82;6.32;;;21.50;93.10;;;;;;4949471;29;20032;-50
2022/05/08 11:30:35;;;;;;;5.97;4.95;;;21.60;92.40;;;;;;4949570;29;20063;-45
2022/05/08 11:36:08;;;;;;;8.30;5.60;;;21.80;92.10;;;;;;4905634;23;20052;-46
2022/05/08 11:38:50;;;;;;;6.32;4.97;;;21.90;92.00;;;;;;4870806;29;20524;-45
2022/05/08 11:41:21;;;;;;;8.60;5.05;;;21.90;92.00;;;;;;4858957;29;20032;-46
2022/05/08 11:43:49;;;;;;;5.85;5.32;;;21.90;92.20;;;;;;4857071;29;20025;-42
2022/05/08 11:46:19;;;;;;;9.25;4.60;;;21.80;90.50;;;;;;4889598;29;20040;-46
2022/05/08 11:48:47;;;;;;;4.70;4.22;;;21.70;90.30;;;;;;4890220;29;20041;-48
2022/05/08 11:51:14;;;;;;;5.18;4.43;;;21.70;90.90;;;;;;4891047;29;20390;-45
2022/05/08 11:53:52;;;;;;;5.50;5.00;;;21.80;90.90;;;;;;4875749;29;20043;-45
2022/05/08 11:56:34;;;;;;;6.78;4.78;;;21.80;90.60;;;;;;4890020;29;20029;-45
2022/05/08 11:59:01;;;;;;;5.13;4.57;;;21.80;90.70;;;;;;4875613;29;20029;-45
2022/05/08 12:01:37;;;;;;;5.22;4.63;;;21.60;90.40;;;;;;4874644;29;20409;-48
2022/05/08 12:04:30;;;;;;;6.80;4.43;;;21.60;90.90;;;;;;4889630;29;20040;-47
2022/05/08 12:07:10;;;;;;;4.80;4.30;;;21.70;90.60;;;;;;4874879;29;20041;-46
2022/05/08 12:09:48;;;;;;;10.73;4.72;;;21.70;90.70;;;;;;4889213;29;20424;-46
2022/05/08 12:12:33;;;;;;;5.00;4.13;;;21.50;89.10;;;;;;4874179;29;20282;-44
2022/05/08 12:15:06;;;;;;;9.68;4.60;;;21.50;90.40;;;;;;4889714;29;20611;-46
2022/05/08 12:17:44;;;;;;;4.22;3.83;;;21.40;88.30;;;;;;4873915;29;20477;-47
2022/05/08 12:20:16;;;;;;;3.95;3.55;;;21.50;88.60;;;;;;4875504;29;20507;-45
2022/05/08 12:22:44;;;;;;;9.02;4.22;;;21.60;89.70;;;;;;4873998;29;20033;-43
2022/05/08 12:25:11;;;;;;;5.68;3.60;;;21.70;88.10;;;;;;4889956;29;20436;-42
2022/05/08 12:27:37;;;;;;;4.55;3.55;;;21.80;87.70;;;;;;4873940;29;20029;-44
2022/05/08 12:30:09;;;;;;;14.23;6.50;;;21.80;87.40;;;;;;4890055;29;20378;-44
2022/05/08 12:32:37;;;;;;;6.38;2.97;;;21.80;86.90;;;;;;4859191;29;20044;-43
2022/05/08 12:35:03;;;;;;;3.67;3.03;;;21.80;85.40;;;;;;4875090;29;20033;-46
2022/05/08 12:37:29;;;;;;;5.75;3.40;;;21.90;86.10;;;;;;4889661;29;20033;-46
2022/05/08 12:39:55;;;;;;;4.10;2.88;;;22.00;85.10;;;;;;4889746;29;20343;-45
2022/05/08 12:42:21;;;;;;;8.50;2.60;;;21.90;85.70;;;;;;4874042;29;20040;-45
2022/05/08 12:44:47;;;;;;;4.20;2.17;;;22.00;82.10;;;;;;4873891;29;20449;-46
2022/05/08 12:47:14;;;;;;;12.68;2.88;;;22.00;80.40;;;;;;4874945;29;20061;-46
2022/05/08 12:49:41;;;;;;;4.75;2.38;;;22.00;80.80;;;;;;4875161;29;20493;-44
2022/05/08 12:52:09;;;;;;;4.35;3.08;;;22.00;81.20;;;;;;4874952;29;20037;-44
2022/05/08 12:54:35;;;;;;;6.05;2.25;;;22.10;81.00;;;;;;4873924;29;20282;-46
2022/05/08 12:57:09;;;;;;;3.75;2.28;;;22.20;79.50;;;;;;4888839;29;20060;-46
2022/05/08 12:59:46;;;;;;;4.65;2.30;;;22.30;80.40;;;;;;4889241;29;20026;-45
2022/05/08 13:02:18;;;;;;;6.85;2.90;;;22.30;80.70;;;;;;4889328;29;20033;-45
2022/05/08 13:04:44;;;;;;;5.35;2.35;;;22.30;81.10;;;;;;4889108;29;20076;-47
2022/05/08 13:07:10;;;;;;;3.38;2.25;;;22.30;80.40;;;;;;4888978;28;20029;-48
2022/05/08 13:09:36;;;;;;;4.78;2.17;;;22.20;79.00;;;;;;4888619;29;20033;-46
2022/05/08 13:12:04;;;;;;;1.90;1.80;;;22.20;77.70;;;;;;4889310;29;20516;-44
2022/05/08 13:14:30;;;;;;;29.05;16.45;;;22.20;77.50;;;;;;4875319;29;20041;-44